createdAt,value
2022-09-05T00:01:28.194Z,101618.59
2022-09-05T00:04:21.333Z,101613.97
2022-09-05T00:06:57.080Z,101614.22
2022-09-05T00:09:44.734Z,101611.41
2022-09-05T00:12:13.734Z,101610.59
2022-09-05T00:15:17.291Z,101616.91
2022-09-05T00:19:37.040Z,101613.34
2022-09-05T00:24:21.928Z,101612.72
2022-09-05T00:24:26.772Z,101608.16
2022-09-05T00:26:56.714Z,101608.34
2022-09-05T00:31:08.755Z,101609.34
2022-09-05T00:32:55.530Z,101613.19
2022-09-05T00:35:39.412Z,101618.44
2022-09-05T00:38:16.576Z,101613.19
2022-09-05T00:40:48.044Z,101616.00
2022-09-05T00:43:20.885Z,101619.56
2022-09-05T00:45:53.642Z,101609.69
2022-09-05T00:48:29.429Z,101613.34
2022-09-05T00:51:10.066Z,101614.50
2022-09-05T00:53:45.774Z,101611.91
2022-09-05T00:56:46.496Z,101625.25
2022-09-05T00:59:58.519Z,101623.47
2022-09-05T01:02:52.445Z,101622.81
2022-09-05T01:05:32.549Z,101623.94
2022-09-05T01:08:18.407Z,101633.69
2022-09-05T01:10:53.340Z,101625.66
2022-09-05T01:13:32.881Z,101625.56
2022-09-05T01:16:10.683Z,101626.63
2022-09-05T01:18:52.415Z,101632.06
2022-09-05T01:21:55.120Z,101632.06
2022-09-05T01:24:54.082Z,101634.28
2022-09-05T01:29:13.363Z,101625.31
2022-09-05T01:30:44.174Z,101636.16
2022-09-05T01:33:20.556Z,101627.13
2022-09-05T01:36:12.349Z,101628.00
2022-09-05T01:39:16.537Z,101626.50
2022-09-05T01:41:46.081Z,101622.69
2022-09-05T01:44:28.939Z,101625.66
2022-09-05T01:47:07.639Z,101624.66
2022-09-05T01:49:56.138Z,101625.53
2022-09-05T01:52:57.399Z,101623.03
2022-09-05T01:56:03.926Z,101622.63
2022-09-05T01:58:34.286Z,101626.09
2022-09-05T02:01:26.623Z,101618.13
2022-09-05T02:04:26.167Z,101618.91
2022-09-05T02:07:19.901Z,101617.16
2022-09-05T02:10:07.993Z,101612.13
2022-09-05T02:12:44.784Z,101617.31
2022-09-05T02:15:40.616Z,101622.72
2022-09-05T02:18:19.352Z,101623.88
2022-09-05T02:20:53.423Z,101624.59
2022-09-05T02:23:41.898Z,101622.25
2022-09-05T02:26:18.624Z,101626.56
2022-09-05T02:28:55.992Z,101632.03
2022-09-05T02:31:32.678Z,101619.44
2022-09-05T02:34:12.292Z,101612.56
2022-09-05T02:36:46.063Z,101618.84
2022-09-05T02:45:03.179Z,101616.06
2022-09-05T02:45:12.662Z,101617.25
2022-09-05T02:45:26.899Z,101615.63
2022-09-05T02:48:14.806Z,101616.28
2022-09-05T02:57:23.893Z,101600.44
2022-09-05T02:57:33.106Z,101607.56
2022-09-05T02:57:36.697Z,101602.41
2022-09-05T02:59:52.271Z,101604.03
2022-09-05T03:02:28.303Z,101600.44
2022-09-05T03:05:04.723Z,101613.94
2022-09-05T03:07:53.642Z,101609.53
2022-09-05T03:10:53.157Z,101606.91
2022-09-05T03:13:54.283Z,101611.47
2022-09-05T03:16:58.583Z,101614.16
2022-09-05T03:20:05.778Z,101611.59
2022-09-05T03:23:16.126Z,101602.03
2022-09-05T03:26:09.526Z,101606.34
2022-09-05T03:29:15.516Z,101617.09
2022-09-05T03:32:17.748Z,101609.25
2022-09-05T03:35:22.644Z,101614.78
2022-09-05T03:38:17.492Z,101610.06
2022-09-05T03:40:58.490Z,101606.63
2022-09-05T03:43:59.405Z,101617.28
2022-09-05T03:46:46.194Z,101615.47
2022-09-05T03:53:58.478Z,101617.22
2022-09-05T03:57:10.481Z,101619.00
2022-09-05T03:57:14.133Z,101608.38
2022-09-05T03:58:57.833Z,101620.81
2022-09-05T04:03:00.053Z,101622.41
2022-09-05T04:08:11.330Z,101619.63
2022-09-05T04:08:27.566Z,101613.38
2022-09-05T04:10:28.109Z,101621.22
2022-09-05T04:13:02.304Z,101628.41
2022-09-05T04:15:37.050Z,101628.47
2022-09-05T04:18:13.146Z,101638.50
2022-09-05T04:20:49.003Z,101644.47
2022-09-05T04:23:27.659Z,101645.25
2022-09-05T04:26:11.971Z,101640.03
2022-09-05T04:29:02.714Z,101637.22
2022-09-05T04:31:43.047Z,101638.16
2022-09-05T04:34:26.785Z,101634.66
2022-09-05T04:37:03.759Z,101641.16
2022-09-05T04:39:33.224Z,101632.91
2022-09-05T04:42:17.220Z,101635.75
2022-09-05T04:44:51.191Z,101647.22
2022-09-05T04:47:29.164Z,101655.88
2022-09-05T04:50:02.350Z,101652.22
2022-09-05T04:52:50.497Z,101659.38
2022-09-05T04:55:22.577Z,101655.88
2022-09-05T04:57:56.354Z,101658.84
2022-09-05T05:05:58.627Z,101656.53
2022-09-05T05:06:14.076Z,101663.91
2022-09-05T05:06:44.072Z,101663.81
2022-09-05T05:09:07.515Z,101668.16
2022-09-05T05:17:54.816Z,101670.91
2022-09-05T05:17:56.381Z,101671.75
2022-09-05T05:18:14.682Z,101673.50
2022-09-05T05:20:39.808Z,101677.28
2022-09-05T05:23:12.108Z,101679.44
2022-09-05T05:25:47.509Z,101673.31
2022-09-05T05:28:24.686Z,101674.06
2022-09-05T05:30:58.282Z,101670.47
2022-09-05T05:33:33.689Z,101677.75
2022-09-05T05:36:03.481Z,101686.44
2022-09-05T05:38:39.476Z,101684.22
2022-09-05T05:41:16.699Z,101679.56
2022-09-05T05:43:46.756Z,101688.81
2022-09-05T05:46:28.398Z,101687.69
2022-09-05T05:49:09.554Z,101699.28
2022-09-05T05:52:01.248Z,101692.69
2022-09-05T05:54:38.384Z,101701.34
2022-09-05T05:57:53.329Z,101698.50
2022-09-05T06:00:27.983Z,101698.22
2022-09-05T06:03:43.558Z,101691.84
2022-09-05T06:06:47.948Z,101697.09
2022-09-05T06:14:50.772Z,101692.38
2022-09-05T06:14:54.847Z,101688.88
2022-09-05T06:16:24.706Z,101696.50
2022-09-05T06:19:13.899Z,101697.31
2022-09-05T06:22:14.968Z,101696.03
2022-09-05T06:25:17.713Z,101692.44
2022-09-05T06:28:18.056Z,101693.34
2022-09-05T06:31:30.514Z,101692.84
2022-09-05T06:34:00.907Z,101691.72
2022-09-05T06:36:54.270Z,101690.00
2022-09-05T06:39:43.788Z,101687.94
2022-09-05T06:42:42.178Z,101698.34
2022-09-05T06:45:32.698Z,101700.50
2022-09-05T06:48:14.567Z,101702.50
2022-09-05T06:52:01.079Z,101689.66
2022-09-05T06:55:03.542Z,101696.13
2022-09-05T06:57:59.954Z,101691.38
2022-09-05T07:00:33.722Z,101697.63
2022-09-05T07:03:20.707Z,101698.41
2022-09-05T07:05:57.370Z,101704.63
2022-09-05T07:08:37.184Z,101706.44
2022-09-05T07:11:16.944Z,101714.63
2022-09-05T07:13:57.035Z,101704.31
2022-09-05T07:16:38.958Z,101703.03
2022-09-05T07:19:27.053Z,101713.34
2022-09-05T07:22:45.904Z,101710.88
2022-09-05T07:25:08.771Z,101707.44
2022-09-05T07:28:27.078Z,101710.47
2022-09-05T07:30:32.054Z,101698.31
2022-09-05T07:33:03.296Z,101712.47
2022-09-05T07:35:42.001Z,101708.06
2022-09-05T07:38:16.160Z,101701.44
2022-09-05T07:40:51.685Z,101712.44
2022-09-05T07:43:26.742Z,101711.06
2022-09-05T07:46:11.548Z,101717.19
2022-09-05T07:48:44.312Z,101716.47
2022-09-05T07:56:49.315Z,101718.38
2022-09-05T07:56:58.900Z,101711.06
2022-09-05T07:59:56.521Z,101716.47
2022-09-05T08:02:24.665Z,101712.00
2022-09-05T08:04:52.596Z,101709.59
2022-09-05T08:07:48.273Z,101706.94
2022-09-05T08:10:15.963Z,101705.22
2022-09-05T08:13:22.981Z,101700.13
2022-09-05T08:16:09.984Z,101707.00
2022-09-05T08:18:38.598Z,101712.00
2022-09-05T08:21:13.421Z,101713.03
2022-09-05T08:23:52.690Z,101708.00
2022-09-05T08:26:32.516Z,101718.13
2022-09-05T08:29:09.481Z,101711.91
2022-09-05T08:31:43.593Z,101715.91
2022-09-05T08:34:18.539Z,101706.91
2022-09-05T08:37:00.777Z,101705.72
2022-09-05T08:39:29.616Z,101691.47
2022-09-05T08:42:28.254Z,101706.63
2022-09-05T08:46:40.903Z,101691.16
2022-09-05T08:48:14.954Z,101701.53
2022-09-05T08:51:12.649Z,101688.44
2022-09-05T08:54:01.269Z,101679.41
2022-09-05T08:56:35.291Z,101679.59
2022-09-05T08:59:32.111Z,101681.88
2022-09-05T09:02:48.085Z,101676.13
2022-09-05T09:06:12.254Z,101669.16
2022-09-05T09:08:29.548Z,101669.91
2022-09-05T09:11:04.293Z,101669.81
2022-09-05T09:13:52.266Z,101673.63
2022-09-05T09:16:30.857Z,101666.44
2022-09-05T09:19:13.322Z,101668.28
2022-09-05T09:21:52.741Z,101665.59
2022-09-05T09:24:34.353Z,101663.38
2022-09-05T09:27:06.054Z,101666.56
2022-09-05T09:29:39.088Z,101642.88
2022-09-05T09:32:13.271Z,101651.38
2022-09-05T09:34:52.863Z,101647.88
2022-09-05T09:37:59.316Z,101647.59
2022-09-05T09:41:10.996Z,101647.59
2022-09-05T09:44:01.372Z,101646.66
2022-09-05T09:46:40.298Z,101645.97
2022-09-05T09:49:27.377Z,101635.34
2022-09-05T09:52:32.948Z,101635.91
2022-09-05T09:55:46.338Z,101637.63
2022-09-05T09:58:31.810Z,101643.63
2022-09-05T10:01:36.739Z,101630.59
2022-09-05T10:10:34.053Z,101638.25
2022-09-05T10:10:56.268Z,101626.41
2022-09-05T10:14:49.168Z,101630.94
2022-09-05T10:17:45.898Z,101621.84
2022-09-05T10:20:43.575Z,101617.66
2022-09-05T10:23:44.258Z,101611.50
2022-09-05T10:26:54.013Z,101621.19
2022-09-05T10:29:44.514Z,101612.56
2022-09-05T10:35:07.967Z,101613.88
2022-09-05T10:35:22.484Z,101611.03
2022-09-05T10:37:57.845Z,101611.59
2022-09-05T10:40:29.356Z,101608.66
2022-09-05T10:43:13.311Z,101602.16
2022-09-05T10:45:49.046Z,101594.81
2022-09-05T10:48:24.317Z,101597.41
2022-09-05T10:51:00.966Z,101606.75
2022-09-05T10:53:43.961Z,101600.44
2022-09-05T10:56:15.496Z,101585.38
2022-09-05T11:02:18.693Z,101580.78
2022-09-05T11:02:29.326Z,101583.31
2022-09-05T11:04:50.442Z,101574.19
2022-09-05T11:07:27.812Z,101570.06
2022-09-05T11:10:08.075Z,101573.53
2022-09-05T11:12:59.404Z,101573.09
2022-09-05T11:15:35.712Z,101571.16
2022-09-05T11:18:06.256Z,101574.28
2022-09-05T11:20:53.768Z,101567.22
2022-09-05T11:23:26.888Z,101577.41
2022-09-05T11:26:01.975Z,101573.06
2022-09-05T11:28:53.746Z,101566.56
2022-09-05T11:32:04.264Z,101554.19
2022-09-05T11:40:00.116Z,101561.66
2022-09-05T11:40:08.285Z,101558.41
2022-09-05T11:41:19.935Z,101551.78
2022-09-05T11:44:26.254Z,101553.19
2022-09-05T11:47:14.285Z,101548.94
2022-09-05T11:50:39.216Z,101544.13
2022-09-05T11:53:42.102Z,101552.38
2022-09-05T11:56:49.491Z,101547.41
2022-09-05T12:00:10.745Z,101545.41
2022-09-05T12:03:11.755Z,101540.59
2022-09-05T12:06:29.670Z,101540.91
2022-09-05T12:09:04.359Z,101538.88
2022-09-05T12:11:55.132Z,101533.44
2022-09-05T12:14:36.595Z,101529.94
2022-09-05T12:17:16.973Z,101533.06
2022-09-05T12:19:58.172Z,101532.75
2022-09-05T12:22:30.360Z,101524.50
2022-09-05T12:27:38.831Z,101528.09
2022-09-05T12:29:27.408Z,101518.72
2022-09-05T12:32:36.459Z,101520.94
2022-09-05T12:36:02.926Z,101513.75
2022-09-05T12:40:43.570Z,101512.72
2022-09-05T12:40:58.218Z,101512.53
2022-09-05T12:43:39.339Z,101510.84
2022-09-05T12:45:50.289Z,101507.84
2022-09-05T12:48:39.120Z,101507.41
2022-09-05T12:51:11.869Z,101509.72
2022-09-05T12:53:50.682Z,101508.97
2022-09-05T12:57:50.344Z,101502.94
2022-09-05T13:03:04.625Z,101507.31
2022-09-05T13:03:13.208Z,101510.50
2022-09-05T13:05:13.670Z,101512.44
2022-09-05T13:07:44.590Z,101505.81
2022-09-05T13:11:11.471Z,101500.94
2022-09-05T13:14:57.457Z,101498.66
2022-09-05T13:16:03.391Z,101497.91
2022-09-05T13:18:39.453Z,101487.69
2022-09-05T13:21:12.151Z,101482.13
2022-09-05T13:23:48.661Z,101480.16
2022-09-05T13:26:25.364Z,101473.88
2022-09-05T13:29:09.810Z,101470.69
2022-09-05T13:38:01.507Z,101464.53
2022-09-05T13:38:12.570Z,101467.25
2022-09-05T13:41:00.126Z,101453.91
2022-09-05T13:43:36.454Z,101454.41
2022-09-05T13:46:15.569Z,101456.00
2022-09-05T13:51:43.898Z,101445.13
2022-09-05T13:54:37.335Z,101452.56
2022-09-05T13:57:37.013Z,101446.41
2022-09-05T14:00:39.213Z,101442.09
2022-09-05T14:03:38.380Z,101436.75
2022-09-05T14:06:47.326Z,101437.00
2022-09-05T14:09:35.471Z,101429.09
2022-09-05T14:12:11.509Z,101438.03
2022-09-05T14:17:57.650Z,101431.56
2022-09-05T14:20:49.615Z,101426.38
2022-09-05T14:23:21.851Z,101419.94
2022-09-05T14:25:54.693Z,101422.41
2022-09-05T14:28:28.018Z,101421.09
2022-09-05T14:33:19.192Z,101421.19
2022-09-05T14:37:41.990Z,101421.91
2022-09-05T14:37:52.815Z,101412.25
2022-09-05T14:40:49.848Z,101412.13
2022-09-05T14:43:40.335Z,101424.97
2022-09-05T14:46:28.176Z,101418.44
2022-09-05T14:49:21.584Z,101426.47
2022-09-05T14:51:52.318Z,101414.72
2022-09-05T15:02:11.171Z,101420.19
2022-09-05T15:02:53.744Z,101424.50
2022-09-05T15:03:04.962Z,101406.81
2022-09-05T15:05:41.004Z,101415.69
2022-09-05T15:08:52.564Z,101402.84
2022-09-05T15:12:20.854Z,101405.81
2022-09-05T15:13:58.104Z,101406.53
2022-09-05T15:16:26.992Z,101410.25
2022-09-05T15:18:56.273Z,101395.81
2022-09-05T15:21:34.106Z,101404.22
2022-09-05T15:24:14.848Z,101401.28
2022-09-05T15:26:55.813Z,101397.38
2022-09-05T15:29:26.195Z,101411.38
2022-09-05T15:31:58.954Z,101403.81
2022-09-05T15:34:38.656Z,101407.78
2022-09-05T15:37:26.085Z,101407.28
2022-09-05T15:40:22.678Z,101402.31
2022-09-05T15:42:59.291Z,101398.41
2022-09-05T15:45:29.760Z,101389.63
2022-09-05T15:48:09.391Z,101389.34
2022-09-05T15:50:45.849Z,101396.66
2022-09-05T15:53:24.867Z,101395.31
2022-09-05T15:56:00.216Z,101396.19
2022-09-05T15:58:53.950Z,101391.00
2022-09-05T16:01:52.446Z,101395.34
2022-09-05T16:10:34.880Z,101401.88
2022-09-05T16:10:46.928Z,101392.69
2022-09-05T16:10:49.692Z,101388.72
2022-09-05T16:12:50.923Z,101386.38
2022-09-05T16:18:39.916Z,101386.41
2022-09-05T16:23:18.802Z,101386.75
2022-09-05T16:23:30.259Z,101378.50
2022-09-05T16:24:07.183Z,101390.75
2022-09-05T16:26:42.819Z,101379.97
2022-09-05T16:29:25.296Z,101382.84
2022-09-05T16:32:09.513Z,101387.72
2022-09-05T16:34:43.802Z,101387.97
2022-09-05T16:37:16.175Z,101388.91
2022-09-05T16:39:49.913Z,101386.56
2022-09-05T16:42:24.027Z,101385.44
2022-09-05T16:45:22.901Z,101384.28
2022-09-05T16:48:05.096Z,101385.50
2022-09-05T16:50:40.988Z,101383.03
2022-09-05T16:53:30.543Z,101375.44
2022-09-05T16:56:03.599Z,101384.22
2022-09-05T16:58:34.802Z,101382.34
2022-09-05T17:01:20.987Z,101378.34
2022-09-05T17:03:55.613Z,101384.47
2022-09-05T17:06:30.184Z,101374.69
2022-09-05T17:09:13.550Z,101373.19
2022-09-05T17:12:00.197Z,101383.56
2022-09-05T17:14:35.266Z,101372.91
2022-09-05T17:17:20.371Z,101375.13
2022-09-05T17:20:07.254Z,101372.16
2022-09-05T17:28:13.682Z,101373.25
2022-09-05T17:29:27.754Z,101368.31
2022-09-05T17:29:36.535Z,101379.50
2022-09-05T17:31:57.054Z,101371.47
2022-09-05T17:34:54.440Z,101363.75
2022-09-05T17:38:11.566Z,101368.81
2022-09-05T17:41:16.134Z,101372.09
2022-09-05T17:43:47.459Z,101369.28
2022-09-05T17:46:21.389Z,101373.88
2022-09-05T17:49:19.719Z,101382.69
2022-09-05T17:52:31.276Z,101381.75
2022-09-05T17:55:00.951Z,101384.16
2022-09-05T17:57:41.015Z,101375.38
2022-09-05T18:00:48.665Z,101391.31
2022-09-05T18:04:16.000Z,101384.56
2022-09-05T18:07:00.626Z,101390.66
2022-09-05T18:10:14.557Z,101402.34
2022-09-05T18:13:13.284Z,101391.75
2022-09-05T18:16:10.564Z,101397.16
2022-09-05T18:19:32.293Z,101396.50
2022-09-05T18:21:48.424Z,101391.94
2022-09-05T18:24:33.370Z,101392.34
2022-09-05T18:27:35.076Z,101405.53
2022-09-05T18:30:09.437Z,101407.50
2022-09-05T18:32:51.945Z,101416.19
2022-09-05T18:35:36.714Z,101408.50
2022-09-05T18:38:51.532Z,101409.34
2022-09-05T18:41:22.256Z,101411.94
2022-09-05T18:44:13.212Z,101415.13
2022-09-05T18:46:47.791Z,101414.03
2022-09-05T18:50:21.794Z,101417.22
2022-09-05T18:52:17.223Z,101418.72
2022-09-05T18:56:10.848Z,101427.59
2022-09-05T18:57:49.958Z,101425.88
2022-09-05T19:00:35.021Z,101430.50
2022-09-05T19:03:24.957Z,101429.28
2022-09-05T19:06:34.679Z,101431.88
2022-09-05T19:08:49.752Z,101433.13
2022-09-05T19:11:28.910Z,101437.66
2022-09-05T19:14:25.637Z,101432.84
2022-09-05T19:16:50.783Z,101437.56
2022-09-05T19:19:24.948Z,101443.16
2022-09-05T19:22:45.211Z,101447.13
2022-09-05T19:24:46.566Z,101445.88
2022-09-05T19:28:55.531Z,101448.88
2022-09-05T19:36:58.630Z,101454.19
2022-09-05T19:37:05.137Z,101449.84
2022-09-05T19:37:13.896Z,101450.78
2022-09-05T19:41:52.762Z,101442.38
2022-09-05T19:47:25.947Z,101451.09
2022-09-05T19:47:44.709Z,101444.50
2022-09-05T19:47:57.536Z,101444.88
2022-09-05T19:50:21.453Z,101438.25
2022-09-05T19:53:02.605Z,101441.84
2022-09-05T19:55:36.422Z,101451.84
2022-09-05T19:58:19.237Z,101448.75
2022-09-05T20:01:08.205Z,101444.50
2022-09-05T20:03:42.592Z,101446.44
2022-09-05T20:06:29.981Z,101444.69
2022-09-05T20:09:14.241Z,101443.38
2022-09-05T20:11:46.969Z,101445.22
2022-09-05T20:14:24.245Z,101439.22
2022-09-05T20:16:55.880Z,101441.94
2022-09-05T20:19:28.809Z,101444.41
2022-09-05T20:21:59.736Z,101444.31
2022-09-05T20:24:49.195Z,101438.41
2022-09-05T20:27:17.506Z,101447.47
2022-09-05T20:29:54.857Z,101438.78
2022-09-05T20:32:30.493Z,101443.38
2022-09-05T20:42:33.546Z,101438.06
2022-09-05T20:43:24.418Z,101433.38
2022-09-05T20:43:36.452Z,101436.97
2022-09-05T20:43:58.959Z,101434.44
2022-09-05T20:50:34.100Z,101438.19
2022-09-05T20:54:14.019Z,101438.44
2022-09-05T20:54:28.946Z,101443.84
2022-09-05T20:55:38.007Z,101451.47
2022-09-05T20:58:10.293Z,101447.13
2022-09-05T21:00:39.690Z,101438.16
2022-09-05T21:03:09.176Z,101440.69
2022-09-05T21:05:40.003Z,101437.22
2022-09-05T21:08:35.038Z,101437.38
2022-09-05T21:11:04.798Z,101425.00
2022-09-05T21:13:36.879Z,101431.53
2022-09-05T21:16:22.866Z,101427.63
2022-09-05T21:18:52.443Z,101422.78
2022-09-05T21:21:28.327Z,101429.03
2022-09-05T21:24:16.950Z,101432.00
2022-09-05T21:26:50.583Z,101429.81
2022-09-05T21:29:28.773Z,101430.66
2022-09-05T21:32:08.536Z,101436.84
2022-09-05T21:34:44.932Z,101437.22
2022-09-05T21:37:14.698Z,101440.69
2022-09-05T21:39:58.523Z,101431.00
2022-09-05T21:44:32.177Z,101435.78
2022-09-05T21:47:38.727Z,101432.31
2022-09-05T21:48:14.877Z,101432.41
2022-09-05T21:50:46.267Z,101428.38
2022-09-05T21:57:53.681Z,101433.53
2022-09-05T21:59:19.660Z,101428.22
2022-09-05T21:59:25.237Z,101423.97
2022-09-05T22:02:05.320Z,101426.03
2022-09-05T22:04:37.164Z,101422.41
2022-09-05T22:07:13.745Z,101424.28
2022-09-05T22:09:41.548Z,101419.06
2022-09-05T22:12:17.435Z,101417.50
2022-09-05T22:15:00.916Z,101417.66
2022-09-05T22:17:48.026Z,101418.63
2022-09-05T22:20:17.934Z,101412.66
2022-09-05T22:22:56.477Z,101408.97
2022-09-05T22:25:28.321Z,101405.59
2022-09-05T22:28:00.774Z,101404.75
2022-09-05T22:30:28.585Z,101401.97
2022-09-05T22:32:57.785Z,101393.97
2022-09-05T22:35:28.503Z,101391.19
2022-09-05T22:38:01.437Z,101395.00
2022-09-05T22:40:31.072Z,101381.53
2022-09-05T22:43:00.674Z,101388.91
2022-09-05T22:45:29.729Z,101379.00
2022-09-05T22:47:59.295Z,101387.88
2022-09-05T22:50:27.595Z,101381.72
2022-09-05T22:52:55.322Z,101382.66
2022-09-05T22:55:23.154Z,101379.81
2022-09-05T22:57:50.973Z,101382.09
2022-09-05T23:00:18.989Z,101376.00
2022-09-05T23:02:51.619Z,101369.84
2022-09-05T23:05:21.668Z,101365.09
2022-09-05T23:07:49.535Z,101362.72
2022-09-05T23:10:17.910Z,101365.56
2022-09-05T23:12:46.059Z,101365.88
2022-09-05T23:15:14.077Z,101364.78
2022-09-05T23:17:42.019Z,101365.75
2022-09-05T23:20:11.452Z,101375.81
2022-09-05T23:22:42.925Z,101373.03
2022-09-05T23:25:11.102Z,101365.13
2022-09-05T23:27:39.636Z,101361.72
2022-09-05T23:30:09.489Z,101362.75
2022-09-05T23:32:37.505Z,101355.78
2022-09-05T23:35:05.914Z,101347.56
2022-09-05T23:37:33.772Z,101341.19
2022-09-05T23:40:03.408Z,101337.09
2022-09-05T23:42:31.252Z,101338.69
2022-09-05T23:44:59.025Z,101337.72
2022-09-05T23:47:28.980Z,101339.78
2022-09-05T23:49:57.434Z,101344.41
2022-09-05T23:52:25.202Z,101350.09
2022-09-05T23:54:52.973Z,101343.94
2022-09-05T23:57:24.344Z,101346.72
2022-09-05T23:59:52.880Z,101350.66
